createdAt,value
2019-04-18T00:01:03.519Z,102256.77
2019-04-18T00:06:05.998Z,102250.45
2019-04-18T00:11:08.735Z,102250.97
2019-04-18T00:16:11.451Z,102252.42
2019-04-18T00:21:19.271Z,102253.73
2019-04-18T00:26:18.814Z,102253.30
2019-04-18T00:31:21.520Z,102250.15
2019-04-18T00:36:24.235Z,102254.47
2019-04-18T00:41:26.940Z,102252.56
2019-04-18T00:46:29.671Z,102257.05
2019-04-18T00:51:32.393Z,102255.88
2019-04-18T00:56:37.550Z,102255.78
2019-04-18T01:01:41.868Z,102247.63
2019-04-18T01:06:44.386Z,102251.43
2019-04-18T01:11:47.097Z,102255.66
2019-04-18T01:16:49.828Z,102251.44
2019-04-18T01:21:52.524Z,102262.93
2019-04-18T01:26:55.227Z,102257.17
2019-04-18T01:31:58.608Z,102260.02
2019-04-18T01:37:02.987Z,102265.89
2019-04-18T01:42:29.538Z,102270.09
2019-04-18T01:47:32.995Z,102266.05
2019-04-18T01:52:35.695Z,102262.27
2019-04-18T01:57:38.402Z,102275.89
2019-04-18T02:02:41.121Z,102269.98
2019-04-18T02:07:45.475Z,102270.91
2019-04-18T02:12:50.572Z,102280.80
2019-04-18T02:17:53.374Z,102279.96
2019-04-18T02:22:56.087Z,102287.89
2019-04-18T02:27:59.659Z,102292.25
2019-04-18T02:33:06.945Z,102296.23
2019-04-18T02:38:07.555Z,102293.30
2019-04-18T02:43:10.367Z,102294.14
2019-04-18T02:48:13.516Z,102295.95
2019-04-18T02:53:19.623Z,102303.23
2019-04-18T02:58:31.303Z,102299.05
2019-04-18T03:03:41.188Z,102297.89
2019-04-18T03:08:42.932Z,102303.58
2019-04-18T03:13:45.653Z,102299.86
2019-04-18T03:18:48.395Z,102302.45
2019-04-18T03:23:51.125Z,102302.98
2019-04-18T03:28:53.840Z,102296.86
2019-04-18T03:34:00.401Z,102303.48
2019-04-18T03:39:01.138Z,102303.54
2019-04-18T03:44:04.254Z,102307.35
2019-04-18T03:49:09.124Z,102309.31
2019-04-18T03:54:11.683Z,102318.08
2019-04-18T03:59:18.557Z,102315.47
2019-04-18T04:04:22.201Z,102319.16
2019-04-18T04:09:23.659Z,102323.08
2019-04-18T04:14:26.368Z,102327.42
2019-04-18T04:19:30.061Z,102325.69
2019-04-18T04:24:32.831Z,102333.20
2019-04-18T04:29:39.103Z,102337.97
2019-04-18T04:34:43.419Z,102347.08
2019-04-18T04:39:44.835Z,102347.92
2019-04-18T04:44:47.685Z,102360.17
2019-04-18T04:49:50.651Z,102372.71
2019-04-18T04:54:53.450Z,102370.55
2019-04-18T05:00:08.882Z,102375.78
2019-04-18T05:05:11.866Z,102378.34
2019-04-18T05:10:15.564Z,102389.24
2019-04-18T05:15:18.482Z,102398.83
2019-04-18T05:20:21.299Z,102402.27
2019-04-18T05:25:24.028Z,102405.72
2019-04-18T05:30:26.735Z,102400.75
2019-04-18T05:35:29.963Z,102413.80
2019-04-18T05:40:36.359Z,102408.52
2019-04-18T05:45:42.723Z,102410.33
2019-04-18T05:50:55.567Z,102417.24
2019-04-18T05:55:58.796Z,102423.20
2019-04-18T06:01:17.421Z,102425.79
2019-04-18T06:07:11.224Z,102421.62
2019-04-18T06:12:04.532Z,102429.70
2019-04-18T06:17:34.406Z,102436.05
2019-04-18T06:22:36.370Z,102439.38
2019-04-18T06:27:58.778Z,102441.23
2019-04-18T06:33:12.410Z,102438.48
2019-04-18T06:38:18.453Z,102437.89
2019-04-18T06:43:24.501Z,102438.91
2019-04-18T06:48:24.431Z,102444.40
2019-04-18T06:53:27.151Z,102451.27
2019-04-18T06:58:35.473Z,102444.20
2019-04-18T07:03:34.500Z,102457.13
2019-04-18T07:08:45.575Z,102454.49
2019-04-18T07:13:55.803Z,102452.77
2019-04-18T07:19:00.480Z,102443.64
2019-04-18T07:24:01.435Z,102451.11
2019-04-18T07:29:04.229Z,102453.36
2019-04-18T07:34:08.601Z,102445.89
2019-04-18T07:39:11.412Z,102449.02
2019-04-18T07:44:19.767Z,102451.67
2019-04-18T07:49:22.491Z,102446.73
2019-04-18T07:54:25.217Z,102442.78
2019-04-18T07:59:27.953Z,102451.53
2019-04-18T08:04:30.675Z,102454.83
2019-04-18T08:09:38.841Z,102460.42
2019-04-18T08:14:44.921Z,102450.98
2019-04-18T08:19:53.614Z,102464.84
2019-04-18T08:24:57.885Z,102456.08
2019-04-18T08:29:59.277Z,102467.79
2019-04-18T08:35:02.114Z,102463.39
2019-04-18T08:40:27.965Z,102465.59
2019-04-18T08:45:39.794Z,102472.91
2019-04-18T08:50:49.436Z,102472.11
2019-04-18T08:55:53.189Z,102470.25
2019-04-18T09:00:58.049Z,102473.02
2019-04-18T09:06:02.078Z,102465.73
2019-04-18T09:11:06.367Z,102468.55
2019-04-18T09:16:12.338Z,102465.59
2019-04-18T09:21:22.925Z,102475.44
2019-04-18T09:26:21.199Z,102460.83
2019-04-18T09:31:24.408Z,102460.56
2019-04-18T09:36:31.065Z,102456.98
2019-04-18T09:41:33.201Z,102453.22
2019-04-18T09:46:39.225Z,102452.73
2019-04-18T09:51:40.791Z,102449.62
2019-04-18T09:56:43.550Z,102444.59
2019-04-18T10:01:46.380Z,102438.05
2019-04-18T10:06:49.848Z,102434.64
2019-04-18T10:11:52.585Z,102438.27
2019-04-18T10:16:55.356Z,102438.66
2019-04-18T10:22:11.551Z,102439.11
2019-04-18T10:27:27.655Z,102426.28
2019-04-18T10:32:34.231Z,102428.44
2019-04-18T10:37:37.076Z,102428.80
2019-04-18T10:42:39.787Z,102416.44
2019-04-18T10:47:51.342Z,102425.18
2019-04-18T10:52:55.719Z,102409.81
2019-04-18T10:57:58.954Z,102413.63
2019-04-18T11:03:01.679Z,102408.92
2019-04-18T11:08:04.513Z,102409.64
2019-04-18T11:13:07.846Z,102401.19
2019-04-18T11:18:11.147Z,102395.08
2019-04-18T11:23:14.590Z,102394.05
2019-04-18T11:28:17.493Z,102391.67
2019-04-18T11:33:20.221Z,102389.20
2019-04-18T11:38:22.934Z,102378.08
2019-04-18T11:43:25.690Z,102369.59
2019-04-18T11:48:28.414Z,102376.80
2019-04-18T11:53:31.130Z,102366.80
2019-04-18T11:58:33.837Z,102364.36
2019-04-18T12:04:08.300Z,102356.41
2019-04-18T12:09:11.480Z,102348.66
2019-04-18T12:14:14.501Z,102350.31
2019-04-18T12:19:17.350Z,102350.28
2019-04-18T12:24:20.067Z,102352.98
2019-04-18T12:29:22.809Z,102347.06
2019-04-18T12:34:25.526Z,102349.06
2019-04-18T12:39:29.593Z,102355.67
2019-04-18T12:44:32.501Z,102356.10
2019-04-18T12:49:35.204Z,102350.06
2019-04-18T12:54:37.933Z,102350.56
2019-04-18T12:59:40.656Z,102339.45
2019-04-18T13:04:43.497Z,102333.92
2019-04-18T13:09:52.314Z,102341.23
2019-04-18T13:15:11.104Z,102336.27
2019-04-18T13:20:13.927Z,102330.02
2019-04-18T13:25:16.875Z,102339.61
2019-04-18T13:30:21.083Z,102330.05
2019-04-18T13:35:23.868Z,102326.34
2019-04-18T13:40:26.788Z,102326.42
2019-04-18T13:45:29.519Z,102330.20
2019-04-18T13:50:32.229Z,102330.39
2019-04-18T13:55:35.218Z,102329.32
2019-04-18T14:00:38.944Z,102323.11
2019-04-18T14:05:41.669Z,102314.95
2019-04-18T14:10:44.392Z,102309.25
2019-04-18T14:15:47.104Z,102313.38
2019-04-18T14:20:49.848Z,102303.73
2019-04-18T14:25:52.576Z,102298.04
2019-04-18T14:30:55.293Z,102304.03
2019-04-18T14:35:58.651Z,102296.70
2019-04-18T14:41:02.332Z,102300.19
2019-04-18T14:46:05.476Z,102300.97
2019-04-18T14:51:08.586Z,102301.57
2019-04-18T14:56:11.546Z,102300.74
2019-04-18T15:01:14.350Z,102296.29
2019-04-18T15:06:17.386Z,102289.58
2019-04-18T15:11:20.245Z,102300.02
2019-04-18T15:16:23.147Z,102292.49
2019-04-18T15:21:25.867Z,102286.39
2019-04-18T15:26:32.258Z,102277.24
2019-04-18T15:31:35.092Z,102280.80
2019-04-18T15:36:37.855Z,102289.27
2019-04-18T15:41:40.783Z,102284.42
2019-04-18T15:46:53.998Z,102285.88
2019-04-18T15:51:56.701Z,102294.84
2019-04-18T15:56:59.425Z,102290.75
2019-04-18T16:02:02.169Z,102280.36
2019-04-18T16:07:06.603Z,102282.13
2019-04-18T16:12:09.324Z,102288.09
2019-04-18T16:17:12.048Z,102290.27
2019-04-18T16:22:14.686Z,102299.92
2019-04-18T16:27:17.433Z,102291.83
2019-04-18T16:32:20.241Z,102288.36
2019-04-18T16:37:22.960Z,102291.28
2019-04-18T16:42:30.812Z,102295.38
2019-04-18T16:47:30.311Z,102293.33
2019-04-18T16:52:33.135Z,102292.07
2019-04-18T16:57:35.864Z,102298.09
2019-04-18T17:02:38.647Z,102302.09
2019-04-18T17:07:41.481Z,102304.47
2019-04-18T17:12:44.199Z,102302.70
2019-04-18T17:17:46.913Z,102298.03
2019-04-18T17:22:50.630Z,102310.52
2019-04-18T17:27:53.458Z,102313.80
2019-04-18T17:32:56.183Z,102319.97
2019-04-18T17:38:26.286Z,102322.17
2019-04-18T17:43:08.055Z,102323.55
2019-04-18T17:48:09.489Z,102328.63
2019-04-18T17:53:24.304Z,102329.23
2019-04-18T17:58:21.153Z,102337.77
2019-04-18T18:03:35.617Z,102334.95
2019-04-18T18:08:28.692Z,102340.59
2019-04-18T18:13:31.459Z,102340.48
2019-04-18T18:18:39.782Z,102352.48
2019-04-18T18:23:45.499Z,102356.45
2019-04-18T18:28:44.146Z,102355.11
2019-04-18T18:33:50.932Z,102358.31
2019-04-18T18:38:54.283Z,102361.70
2019-04-18T18:44:01.475Z,102360.42
2019-04-18T18:49:01.654Z,102364.38
2019-04-18T18:54:05.125Z,102378.72
2019-04-18T18:59:14.120Z,102380.94
2019-04-18T19:04:16.683Z,102383.86
2019-04-18T19:09:34.633Z,102391.22
2019-04-18T19:14:30.916Z,102393.69
2019-04-18T19:19:27.108Z,102400.37
2019-04-18T19:24:29.871Z,102395.53
2019-04-18T19:29:41.461Z,102398.38
2019-04-18T19:34:37.770Z,102402.33
2019-04-18T19:40:00.681Z,102402.95
2019-04-18T19:44:45.199Z,102408.00
2019-04-18T19:49:48.639Z,102406.64
2019-04-18T19:54:51.688Z,102408.64
2019-04-18T19:59:54.478Z,102410.09
2019-04-18T20:04:59.445Z,102415.02
2019-04-18T20:10:16.006Z,102411.97
2019-04-18T20:15:08.138Z,102411.21
2019-04-18T20:20:11.466Z,102419.13
2019-04-18T20:25:15.470Z,102419.82
2019-04-18T20:30:24.058Z,102431.45
2019-04-18T20:35:30.290Z,102424.53
2019-04-18T20:40:46.677Z,102421.80
2019-04-18T20:45:46.183Z,102432.03
2019-04-18T20:50:46.145Z,102431.73
2019-04-18T20:55:52.905Z,102428.30
2019-04-18T21:00:47.205Z,102432.30
2019-04-18T21:05:51.031Z,102432.80
2019-04-18T21:10:53.983Z,102437.88
2019-04-18T21:16:03.815Z,102439.69
2019-04-18T21:21:01.315Z,102440.10
2019-04-18T21:26:09.644Z,102447.84
2019-04-18T21:31:10.430Z,102454.06
2019-04-18T21:36:19.454Z,102448.05
2019-04-18T21:41:18.137Z,102453.13
2019-04-18T21:46:21.047Z,102452.16
2019-04-18T21:51:23.835Z,102459.63
2019-04-18T21:56:27.506Z,102467.89
2019-04-18T22:01:40.272Z,102459.48
2019-04-18T22:06:47.596Z,102458.75
2019-04-18T22:11:54.091Z,102471.95
2019-04-18T22:16:50.077Z,102477.52
2019-04-18T22:21:55.015Z,102484.78
2019-04-18T22:27:00.330Z,102488.30
2019-04-18T22:32:07.524Z,102493.41
2019-04-18T22:37:07.528Z,102494.06
2019-04-18T22:42:16.383Z,102499.87
2019-04-18T22:47:17.941Z,102496.44
2019-04-18T22:52:27.728Z,102503.74
2019-04-18T22:57:29.830Z,102504.43
2019-04-18T23:02:32.243Z,102497.97
2019-04-18T23:07:46.781Z,102500.33
2019-04-18T23:12:44.101Z,102498.58
2019-04-18T23:17:43.981Z,102500.45
2019-04-18T23:22:47.259Z,102497.10
2019-04-18T23:27:50.402Z,102501.61
2019-04-18T23:32:54.487Z,102492.46
2019-04-18T23:38:02.827Z,102498.00
2019-04-18T23:43:01.947Z,102499.47
2019-04-18T23:48:05.630Z,102496.00
2019-04-18T23:53:11.290Z,102497.28
2019-04-18T23:58:14.666Z,102495.30
